createdAt,value
2019-04-05T00:01:54.017Z,60.56
2019-04-05T00:04:22.497Z,60.60
2019-04-05T00:06:51.013Z,60.67
2019-04-05T00:09:19.481Z,60.70
2019-04-05T00:11:47.951Z,60.77
2019-04-05T00:14:16.449Z,60.82
2019-04-05T00:16:44.913Z,60.87
2019-04-05T00:19:13.380Z,60.88
2019-04-05T00:21:41.875Z,60.88
2019-04-05T00:24:10.344Z,60.84
2019-04-05T00:26:38.813Z,60.84
2019-04-05T00:29:07.330Z,60.85
2019-04-05T00:31:35.792Z,60.92
2019-04-05T00:34:04.261Z,60.88
2019-04-05T00:36:32.836Z,60.94
2019-04-05T00:39:01.307Z,60.95
2019-04-05T00:41:32.824Z,61.00
2019-04-05T00:44:00.002Z,61.01
2019-04-05T00:46:28.744Z,61.11
2019-04-05T00:48:57.196Z,61.14
2019-04-05T00:51:25.715Z,61.20
2019-04-05T00:53:54.182Z,61.24
2019-04-05T00:56:22.795Z,61.28
2019-04-05T00:58:51.297Z,61.37
2019-04-05T01:01:19.764Z,61.38
2019-04-05T01:03:48.251Z,61.49
2019-04-05T01:06:16.749Z,61.58
2019-04-05T01:08:45.212Z,61.65
2019-04-05T01:11:13.744Z,61.62
2019-04-05T01:13:42.324Z,61.65
2019-04-05T01:16:10.802Z,61.70
2019-04-05T01:18:39.296Z,61.79
2019-04-05T01:21:09.703Z,61.83
2019-04-05T01:23:38.440Z,61.86
2019-04-05T01:26:06.918Z,61.84
2019-04-05T01:28:35.413Z,61.91
2019-04-05T01:31:03.955Z,61.96
2019-04-05T01:33:32.433Z,62.04
2019-04-05T01:36:00.944Z,62.10
2019-04-05T01:38:29.570Z,62.18
2019-04-05T01:40:58.112Z,62.19
2019-04-05T01:43:26.696Z,62.25
2019-04-05T01:45:56.253Z,62.24
2019-04-05T01:48:24.910Z,62.27
2019-04-05T01:50:53.498Z,62.31
2019-04-05T01:53:21.980Z,62.37
2019-04-05T01:55:50.454Z,62.38
2019-04-05T01:58:18.957Z,62.42
2019-04-05T02:00:47.500Z,62.42
2019-04-05T02:03:16.033Z,62.46
2019-04-05T02:05:44.538Z,62.50
2019-04-05T02:08:13.086Z,62.57
2019-04-05T02:10:41.624Z,62.63
2019-04-05T02:13:10.365Z,62.67
2019-04-05T02:15:38.995Z,62.72
2019-04-05T02:18:07.530Z,62.79
2019-04-05T02:20:36.033Z,62.82
2019-04-05T02:23:04.577Z,62.85
2019-04-05T02:25:33.031Z,62.94
2019-04-05T02:28:01.556Z,62.97
2019-04-05T02:30:30.030Z,62.90
2019-04-05T02:32:58.571Z,62.90
2019-04-05T02:35:27.150Z,62.93
2019-04-05T02:37:55.674Z,62.92
2019-04-05T02:40:26.456Z,62.94
2019-04-05T02:42:56.003Z,62.93
2019-04-05T02:45:25.048Z,62.94
2019-04-05T02:47:55.530Z,62.90
2019-04-05T02:50:27.271Z,62.96
2019-04-05T02:52:58.766Z,62.96
2019-04-05T02:55:28.046Z,62.98
2019-04-05T02:57:57.914Z,63.03
2019-04-05T03:00:26.560Z,63.08
2019-04-05T03:02:55.528Z,63.15
2019-04-05T03:05:24.011Z,63.20
2019-04-05T03:07:52.841Z,63.29
2019-04-05T03:10:51.674Z,63.38
2019-04-05T03:13:20.777Z,63.31
2019-04-05T03:15:49.311Z,63.29
2019-04-05T03:18:17.907Z,63.38
2019-04-05T03:20:46.567Z,63.47
2019-04-05T03:23:15.117Z,63.56
2019-04-05T03:25:43.903Z,63.72
2019-04-05T03:28:12.444Z,63.83
2019-04-05T03:30:41.396Z,63.92
2019-04-05T03:33:09.900Z,63.99
2019-04-05T03:35:38.437Z,64.16
2019-04-05T03:38:07.676Z,64.22
2019-04-05T03:40:36.346Z,64.36
2019-04-05T03:43:04.897Z,64.34
2019-04-05T03:45:33.375Z,64.37
2019-04-05T03:48:02.341Z,64.44
2019-04-05T03:50:31.049Z,64.52
2019-04-05T03:53:00.156Z,64.60
2019-04-05T03:55:28.728Z,64.66
2019-04-05T03:57:57.208Z,64.66
2019-04-05T04:00:25.704Z,64.72
2019-04-05T04:02:54.314Z,64.68
2019-04-05T04:05:22.797Z,64.80
2019-04-05T04:07:51.566Z,64.84
2019-04-05T04:10:20.300Z,64.91
2019-04-05T04:12:48.787Z,64.93
2019-04-05T04:15:17.324Z,64.98
2019-04-05T04:17:46.321Z,65.09
2019-04-05T04:20:36.049Z,65.10
2019-04-05T04:23:05.885Z,65.18
2019-04-05T04:25:34.612Z,65.12
2019-04-05T04:28:03.157Z,65.18
2019-04-05T04:30:32.590Z,65.21
2019-04-05T04:33:01.640Z,65.24
2019-04-05T04:35:30.115Z,65.33
2019-04-05T04:37:58.638Z,65.35
2019-04-05T04:40:27.178Z,65.50
2019-04-05T04:42:56.311Z,65.59
2019-04-05T04:45:25.556Z,65.55
2019-04-05T04:47:54.095Z,65.57
2019-04-05T04:50:23.120Z,65.62
2019-04-05T04:52:52.243Z,65.60
2019-04-05T04:55:20.793Z,65.56
2019-04-05T04:57:49.336Z,65.59
2019-04-05T05:00:18.096Z,65.54
2019-04-05T05:02:46.821Z,65.52
2019-04-05T05:05:15.461Z,65.55
2019-04-05T05:07:43.972Z,65.48
2019-04-05T05:10:12.503Z,65.46
2019-04-05T05:12:41.349Z,65.37
2019-04-05T05:15:10.783Z,65.38
2019-04-05T05:17:39.317Z,65.34
2019-04-05T05:20:08.053Z,65.27
2019-04-05T05:22:37.118Z,65.14
2019-04-05T05:25:07.060Z,65.03
2019-04-05T05:27:35.540Z,64.96
2019-04-05T05:30:06.150Z,64.86
2019-04-05T05:32:35.330Z,64.75
2019-04-05T05:35:04.944Z,64.66
2019-04-05T05:37:33.508Z,64.48
2019-04-05T05:40:02.055Z,64.43
2019-04-05T05:42:30.522Z,64.30
2019-04-05T05:44:59.015Z,64.13
2019-04-05T05:47:27.492Z,64.06
2019-04-05T05:49:55.969Z,63.88
2019-04-05T05:52:24.932Z,63.91
2019-04-05T05:54:54.436Z,63.70
2019-04-05T05:57:22.902Z,63.57
2019-04-05T05:59:51.445Z,63.42
2019-04-05T06:02:19.984Z,63.27
2019-04-05T06:04:48.467Z,63.34
2019-04-05T06:07:19.963Z,63.22
2019-04-05T06:09:47.778Z,63.09
2019-04-05T06:12:16.419Z,62.92
2019-04-05T06:14:44.928Z,62.74
2019-04-05T06:17:13.389Z,62.58
2019-04-05T06:19:41.864Z,62.36
2019-04-05T06:22:10.362Z,62.07
2019-04-05T06:24:38.847Z,61.83
2019-04-05T06:27:07.302Z,61.90
2019-04-05T06:29:35.826Z,61.76
2019-04-05T06:32:04.368Z,61.52
2019-04-05T06:34:32.847Z,61.58
2019-04-05T06:37:01.346Z,61.32
2019-04-05T06:39:29.847Z,60.94
2019-04-05T06:41:58.314Z,60.71
2019-04-05T06:44:28.143Z,60.65
2019-04-05T06:46:56.781Z,60.44
2019-04-05T06:49:25.257Z,60.24
2019-04-05T06:51:53.796Z,59.94
2019-04-05T06:54:22.290Z,59.72
2019-04-05T06:56:50.894Z,59.46
2019-04-05T06:59:19.489Z,59.16
2019-04-05T07:01:48.073Z,58.67
2019-04-05T07:04:16.621Z,58.41
2019-04-05T07:06:45.135Z,57.86
2019-04-05T07:09:13.622Z,57.51
2019-04-05T07:11:42.099Z,57.26
2019-04-05T07:14:10.682Z,56.63
2019-04-05T07:16:39.161Z,56.07
2019-04-05T07:19:07.639Z,55.64
2019-04-05T07:21:36.177Z,55.42
2019-04-05T07:24:04.735Z,55.20
2019-04-05T07:26:33.223Z,54.91
2019-04-05T07:29:01.726Z,54.44
2019-04-05T07:31:30.208Z,54.43
2019-04-05T07:33:58.747Z,54.13
2019-04-05T07:36:27.254Z,54.17
2019-04-05T07:38:55.736Z,53.79
2019-04-05T07:41:24.230Z,53.51
2019-04-05T07:43:52.738Z,53.09
2019-04-05T07:46:21.215Z,52.96
2019-04-05T07:48:49.690Z,52.54
2019-04-05T07:51:18.214Z,52.40
2019-04-05T07:53:46.705Z,51.59
2019-04-05T07:56:15.172Z,50.66
2019-04-05T07:58:44.003Z,50.77
2019-04-05T08:01:12.483Z,50.37
2019-04-05T08:03:40.961Z,50.42
2019-04-05T08:06:09.506Z,50.49
2019-04-05T08:08:43.838Z,51.03
2019-04-05T08:11:12.378Z,50.93
2019-04-05T08:13:42.468Z,51.01
2019-04-05T08:16:13.165Z,51.04
2019-04-05T08:18:41.817Z,51.23
2019-04-05T08:21:10.327Z,51.28
2019-04-05T08:23:38.809Z,50.96
2019-04-05T08:26:07.419Z,50.64
2019-04-05T08:28:35.935Z,50.74
2019-04-05T08:31:04.406Z,51.09
2019-04-05T08:33:32.890Z,50.80
2019-04-05T08:36:01.407Z,50.71
2019-04-05T08:38:29.875Z,50.95
2019-04-05T08:40:58.378Z,51.01
2019-04-05T08:43:26.898Z,50.92
2019-04-05T08:45:55.375Z,51.06
2019-04-05T08:48:23.858Z,51.23
2019-04-05T08:50:52.355Z,51.06
2019-04-05T08:53:20.817Z,51.03
2019-04-05T08:55:49.284Z,50.93
2019-04-05T08:58:17.811Z,50.97
2019-04-05T09:00:47.299Z,50.86
2019-04-05T09:03:15.781Z,50.82
2019-04-05T09:05:44.430Z,50.61
2019-04-05T09:08:12.899Z,50.65
2019-04-05T09:10:41.379Z,50.68
2019-04-05T09:13:09.890Z,50.35
2019-04-05T09:15:38.370Z,49.88
2019-04-05T09:18:06.847Z,49.46
2019-04-05T09:20:35.368Z,49.25
2019-04-05T09:23:03.825Z,49.20
2019-04-05T09:25:32.292Z,49.06
2019-04-05T09:28:00.901Z,48.59
2019-04-05T09:30:29.324Z,48.69
2019-04-05T09:32:57.795Z,48.92
2019-04-05T09:35:26.287Z,48.74
2019-04-05T09:37:54.772Z,48.31
2019-04-05T09:40:23.246Z,48.37
2019-04-05T09:42:51.771Z,48.03
2019-04-05T09:45:20.242Z,47.94
2019-04-05T09:47:48.710Z,47.84
2019-04-05T09:50:17.406Z,47.79
2019-04-05T09:52:47.672Z,47.60
2019-04-05T09:55:16.145Z,47.27
2019-04-05T09:57:44.649Z,47.33
2019-04-05T10:00:17.858Z,47.45
2019-04-05T10:02:47.048Z,47.25
2019-04-05T10:05:15.540Z,47.04
2019-04-05T10:07:54.096Z,46.83
2019-04-05T10:10:14.276Z,47.22
2019-04-05T10:12:42.787Z,47.18
2019-04-05T10:15:11.443Z,47.26
2019-04-05T10:17:39.898Z,46.89
2019-04-05T10:20:08.467Z,46.92
2019-04-05T10:22:36.939Z,46.76
2019-04-05T10:25:07.008Z,46.84
2019-04-05T10:27:35.524Z,46.58
2019-04-05T10:30:09.670Z,46.23
2019-04-05T10:32:38.157Z,46.22
2019-04-05T10:35:07.223Z,46.59
2019-04-05T10:37:35.693Z,46.20
2019-04-05T10:40:05.763Z,45.95
2019-04-05T10:42:36.499Z,45.72
2019-04-05T10:45:09.684Z,45.95
2019-04-05T10:47:38.157Z,45.91
2019-04-05T10:50:09.061Z,45.90
2019-04-05T10:52:37.608Z,45.69
2019-04-05T10:55:07.219Z,45.75
2019-04-05T10:57:35.733Z,45.64
2019-04-05T11:00:06.846Z,45.63
2019-04-05T11:02:35.392Z,45.44
2019-04-05T11:05:04.109Z,45.25
2019-04-05T11:07:34.968Z,44.82
2019-04-05T11:10:02.937Z,45.20
2019-04-05T11:12:31.446Z,45.07
2019-04-05T11:14:59.909Z,45.15
2019-04-05T11:17:28.375Z,45.04
2019-04-05T11:19:56.870Z,44.84
2019-04-05T11:22:25.336Z,45.13
2019-04-05T11:24:53.812Z,44.73
2019-04-05T11:27:22.346Z,44.61
2019-04-05T11:29:50.831Z,44.70
2019-04-05T11:32:19.439Z,44.35
2019-04-05T11:34:48.012Z,44.41
2019-04-05T11:37:16.881Z,44.21
2019-04-05T11:39:48.565Z,44.02
2019-04-05T11:42:17.779Z,43.79
2019-04-05T11:44:47.323Z,43.37
2019-04-05T11:47:19.028Z,43.35
2019-04-05T11:49:46.085Z,42.95
2019-04-05T11:52:14.569Z,42.76
2019-04-05T11:54:43.831Z,42.11
2019-04-05T11:57:15.950Z,41.74
2019-04-05T11:59:44.421Z,41.85
2019-04-05T12:02:16.956Z,41.71
2019-04-05T12:04:45.477Z,41.72
2019-04-05T12:07:14.254Z,41.95
2019-04-05T12:09:42.729Z,42.15
2019-04-05T12:12:11.309Z,42.01
2019-04-05T12:14:39.847Z,41.89
2019-04-05T12:17:09.687Z,41.82
2019-04-05T12:19:38.400Z,41.62
2019-04-05T12:22:09.094Z,42.06
2019-04-05T12:24:37.543Z,41.87
2019-04-05T12:27:06.044Z,41.95
2019-04-05T12:29:34.516Z,41.97
2019-04-05T12:32:03.053Z,42.02
2019-04-05T12:34:31.626Z,41.93
2019-04-05T12:37:00.087Z,41.96
2019-04-05T12:39:28.548Z,42.08
2019-04-05T12:41:57.067Z,41.91
2019-04-05T12:44:25.527Z,41.83
2019-04-05T12:46:53.994Z,41.53
2019-04-05T12:49:22.500Z,41.33
2019-04-05T12:51:50.986Z,41.45
2019-04-05T12:54:19.430Z,41.82
2019-04-05T12:56:47.929Z,41.84
2019-04-05T12:59:16.405Z,42.12
2019-04-05T13:01:45.657Z,42.05
2019-04-05T13:04:15.143Z,41.62
2019-04-05T13:06:43.603Z,41.55
2019-04-05T13:09:13.317Z,41.38
2019-04-05T13:11:42.003Z,41.45
2019-04-05T13:14:10.656Z,40.99
2019-04-05T13:16:39.127Z,40.36
2019-04-05T13:19:07.643Z,40.34
2019-04-05T13:21:36.110Z,40.35
2019-04-05T13:24:07.054Z,39.96
2019-04-05T13:26:36.767Z,39.49
2019-04-05T13:29:05.130Z,39.35
2019-04-05T13:31:33.600Z,39.72
2019-04-05T13:34:02.096Z,39.93
2019-04-05T13:36:30.575Z,39.67
2019-04-05T13:39:00.358Z,39.73
2019-04-05T13:41:31.267Z,40.11
2019-04-05T13:44:01.641Z,40.20
2019-04-05T13:46:29.531Z,39.91
2019-04-05T13:48:58.024Z,40.04
2019-04-05T13:51:28.032Z,40.03
2019-04-05T13:53:56.690Z,40.25
2019-04-05T13:56:25.278Z,40.51
2019-04-05T13:58:53.755Z,40.69
2019-04-05T14:01:22.227Z,40.63
2019-04-05T14:03:50.788Z,40.60
2019-04-05T14:06:19.290Z,40.79
2019-04-05T14:08:47.764Z,40.79
2019-04-05T14:11:16.396Z,40.48
2019-04-05T14:13:44.855Z,40.58
2019-04-05T14:16:13.395Z,40.60
2019-04-05T14:18:45.188Z,40.60
2019-04-05T14:21:12.201Z,40.24
2019-04-05T14:23:40.670Z,40.50
2019-04-05T14:26:10.076Z,40.44
2019-04-05T14:28:38.541Z,40.10
2019-04-05T14:31:07.011Z,40.03
2019-04-05T14:33:35.525Z,40.25
2019-04-05T14:36:03.995Z,40.22
2019-04-05T14:38:32.468Z,40.18
2019-04-05T14:41:01.055Z,40.26
2019-04-05T14:43:29.522Z,40.36
2019-04-05T14:45:57.988Z,40.32
2019-04-05T14:48:28.021Z,40.41
2019-04-05T14:50:57.918Z,40.47
2019-04-05T14:53:27.027Z,40.33
2019-04-05T14:55:59.059Z,40.29
2019-04-05T14:58:25.772Z,40.16
2019-04-05T15:00:54.255Z,40.28
2019-04-05T15:03:22.844Z,40.18
2019-04-05T15:05:51.326Z,40.30
2019-04-05T15:08:20.673Z,40.27
2019-04-05T15:10:51.350Z,40.26
2019-04-05T15:13:20.486Z,40.14
2019-04-05T15:15:48.956Z,40.01
2019-04-05T15:18:19.601Z,40.03
2019-04-05T15:20:47.655Z,39.78
2019-04-05T15:23:16.128Z,39.84
2019-04-05T15:25:44.664Z,39.96
2019-04-05T15:28:13.140Z,39.69
2019-04-05T15:30:41.610Z,39.75
2019-04-05T15:33:10.115Z,39.99
2019-04-05T15:35:38.584Z,39.99
2019-04-05T15:38:07.055Z,39.91
2019-04-05T15:40:35.559Z,40.11
2019-04-05T15:43:04.021Z,40.07
2019-04-05T15:45:32.490Z,40.28
2019-04-05T15:48:01.004Z,40.45
2019-04-05T15:50:29.502Z,40.67
2019-04-05T15:52:59.730Z,40.93
2019-04-05T15:55:28.207Z,41.09
2019-04-05T15:57:56.669Z,41.31
2019-04-05T16:00:40.066Z,41.53
2019-04-05T16:03:08.521Z,41.65
2019-04-05T16:05:36.995Z,42.22
2019-04-05T16:08:05.575Z,43.24
2019-04-05T16:10:34.052Z,43.74
2019-04-05T16:13:02.543Z,44.13
2019-04-05T16:15:31.180Z,44.48
2019-04-05T16:17:59.653Z,44.75
2019-04-05T16:20:28.196Z,45.09
2019-04-05T16:22:56.706Z,45.24
2019-04-05T16:25:25.189Z,45.43
2019-04-05T16:27:53.671Z,45.63
2019-04-05T16:30:22.194Z,45.86
2019-04-05T16:32:50.666Z,46.08
2019-04-05T16:35:19.212Z,46.36
2019-04-05T16:37:47.762Z,46.62
2019-04-05T16:40:16.765Z,46.85
2019-04-05T16:42:45.233Z,47.06
2019-04-05T16:45:14.271Z,47.28
2019-04-05T16:47:42.741Z,47.54
2019-04-05T16:50:11.768Z,47.80
2019-04-05T16:52:45.091Z,48.02
2019-04-05T16:55:10.607Z,48.25
2019-04-05T16:57:39.161Z,48.46
2019-04-05T17:00:12.727Z,48.53
2019-04-05T17:02:41.275Z,48.58
2019-04-05T17:05:09.878Z,48.68
2019-04-05T17:07:38.391Z,48.86
2019-04-05T17:10:07.493Z,49.12
2019-04-05T17:12:36.079Z,49.40
2019-04-05T17:15:07.283Z,49.89
2019-04-05T17:17:36.231Z,50.25
2019-04-05T17:20:05.941Z,50.67
2019-04-05T17:22:34.453Z,51.14
2019-04-05T17:25:03.213Z,51.61
2019-04-05T17:27:31.683Z,51.97
2019-04-05T17:30:00.190Z,52.38
2019-04-05T17:32:28.677Z,52.67
2019-04-05T17:34:57.139Z,53.04
2019-04-05T17:37:26.829Z,53.41
2019-04-05T17:39:55.616Z,53.71
2019-04-05T17:42:24.083Z,54.09
2019-04-05T17:44:52.634Z,54.58
2019-04-05T17:47:21.100Z,54.55
2019-04-05T17:49:49.575Z,54.75
2019-04-05T17:52:18.094Z,55.07
2019-04-05T17:54:46.562Z,55.23
2019-04-05T17:57:15.172Z,55.52
2019-04-05T17:59:44.207Z,56.73
2019-04-05T18:02:12.687Z,56.29
2019-04-05T18:04:41.228Z,56.58
2019-04-05T18:07:09.893Z,56.81
2019-04-05T18:09:38.381Z,57.25
2019-04-05T18:12:06.859Z,57.81
2019-04-05T18:14:35.419Z,57.83
2019-04-05T18:17:03.984Z,57.94
2019-04-05T18:19:32.772Z,58.06
2019-04-05T18:22:01.292Z,58.32
2019-04-05T18:24:29.774Z,58.55
2019-04-05T18:26:58.309Z,58.55
2019-04-05T18:29:26.798Z,58.58
2019-04-05T18:31:55.282Z,58.75
2019-04-05T18:34:23.760Z,58.91
2019-04-05T18:36:52.279Z,59.01
2019-04-05T18:39:20.751Z,59.20
2019-04-05T18:41:49.225Z,59.28
2019-04-05T18:44:17.736Z,59.52
2019-04-05T18:46:46.214Z,59.68
2019-04-05T18:49:14.682Z,59.96
2019-04-05T18:51:43.255Z,60.13
2019-04-05T18:54:11.732Z,60.57
2019-04-05T18:56:40.227Z,60.65
2019-04-05T18:59:08.754Z,60.68
2019-04-05T19:01:37.246Z,60.88
2019-04-05T19:04:05.835Z,61.01
2019-04-05T19:06:34.444Z,61.23
2019-04-05T19:09:04.565Z,61.58
2019-04-05T19:11:33.050Z,61.93
2019-04-05T19:14:01.758Z,62.05
2019-04-05T19:16:30.213Z,62.07
2019-04-05T19:18:58.736Z,62.20
2019-04-05T19:21:27.673Z,62.46
2019-04-05T19:23:56.137Z,62.50
2019-04-05T19:26:24.616Z,62.76
2019-04-05T19:28:53.133Z,63.12
2019-04-05T19:48:53.289Z,64.88
2019-04-05T19:51:21.810Z,65.07
2019-04-05T19:54:00.675Z,65.40
2019-04-05T19:56:20.475Z,65.64
2019-04-05T19:58:49.033Z,65.72
2019-04-05T20:01:17.474Z,65.97
2019-04-05T20:03:45.951Z,66.18
2019-04-05T20:06:14.504Z,66.25
2019-04-05T20:08:42.989Z,66.37
2019-04-05T20:11:11.478Z,66.41
2019-04-05T20:13:39.992Z,66.69
2019-04-05T20:16:08.485Z,66.98
2019-04-05T20:18:36.953Z,67.25
2019-04-05T20:21:05.470Z,67.45
2019-04-05T20:23:33.948Z,67.45
2019-04-05T20:26:02.462Z,67.44
2019-04-05T20:28:30.928Z,67.48
2019-04-05T20:30:59.415Z,67.57
2019-04-05T20:33:27.885Z,67.66
2019-04-05T20:35:56.403Z,67.71
2019-04-05T20:38:24.879Z,67.84
2019-04-05T20:40:53.360Z,68.07
2019-04-05T20:43:21.882Z,68.28
2019-04-05T20:45:50.359Z,68.50
2019-04-05T20:48:18.832Z,68.60
2019-04-05T20:50:47.341Z,68.79
2019-04-05T20:53:15.824Z,68.91
2019-04-05T20:55:44.301Z,69.10
2019-04-05T20:58:12.811Z,69.28
2019-04-05T21:00:41.288Z,69.53
2019-04-05T21:03:09.745Z,69.76
2019-04-05T21:05:38.261Z,69.92
2019-04-05T21:08:06.731Z,70.10
2019-04-05T21:10:35.200Z,70.34
2019-04-05T21:13:04.151Z,70.55
2019-04-05T21:15:32.702Z,70.72
2019-04-05T21:18:01.166Z,70.82
2019-04-05T21:20:29.690Z,70.97
2019-04-05T21:22:59.245Z,71.12
2019-04-05T21:25:27.722Z,71.19
2019-04-05T21:27:56.214Z,71.26
2019-04-05T21:30:24.681Z,71.22
2019-04-05T21:32:53.177Z,71.29
2019-04-05T21:35:21.696Z,71.41
2019-04-05T21:37:50.241Z,71.53
2019-04-05T21:40:19.008Z,71.77
2019-04-05T21:42:47.529Z,71.97
2019-04-05T21:45:16.002Z,72.14
2019-04-05T21:47:44.482Z,72.36
2019-04-05T21:50:13.053Z,72.41
2019-04-05T21:52:41.523Z,72.46
2019-04-05T21:55:10.064Z,72.81
2019-04-05T21:57:38.590Z,72.90
2019-04-05T22:00:20.375Z,73.20
2019-04-05T22:02:48.746Z,73.40
2019-04-05T22:05:17.236Z,73.65
2019-04-05T22:07:45.707Z,73.78
2019-04-05T22:10:14.287Z,74.12
2019-04-05T22:12:42.773Z,74.49
2019-04-05T22:15:11.249Z,74.55
2019-04-05T22:17:39.772Z,74.67
2019-04-05T22:20:08.417Z,74.72
2019-04-05T22:22:36.890Z,74.91
2019-04-05T22:25:07.021Z,74.87
2019-04-05T22:27:35.485Z,75.00
2019-04-05T22:30:05.807Z,75.18
2019-04-05T22:32:34.331Z,75.49
2019-04-05T22:35:02.807Z,75.63
2019-04-05T22:37:31.288Z,76.28
2019-04-05T22:39:59.793Z,76.89
2019-04-05T22:42:28.276Z,77.29
2019-04-05T22:44:56.744Z,77.80
2019-04-05T22:47:25.241Z,78.41
2019-04-05T22:49:53.715Z,78.43
2019-04-05T22:52:22.185Z,78.36
2019-04-05T22:54:50.691Z,78.37
2019-04-05T22:57:19.175Z,78.76
2019-04-05T22:59:47.647Z,79.14
2019-04-05T23:02:16.148Z,79.29
2019-04-05T23:04:44.617Z,79.00
2019-04-05T23:07:13.167Z,79.45
2019-04-05T23:09:41.735Z,79.45
2019-04-05T23:12:10.221Z,79.72
2019-04-05T23:14:38.822Z,79.63
2019-04-05T23:17:07.355Z,79.55
2019-04-05T23:19:35.856Z,79.37
2019-04-05T23:22:04.395Z,79.24
2019-04-05T23:24:32.985Z,79.17
2019-04-05T23:27:02.471Z,79.04
2019-04-05T23:29:30.956Z,79.04
2019-04-05T23:31:59.472Z,78.90
2019-04-05T23:34:27.949Z,78.62
2019-04-05T23:36:56.408Z,78.35
2019-04-05T23:39:24.922Z,78.18
2019-04-05T23:41:53.372Z,78.09
2019-04-05T23:44:21.831Z,78.11
2019-04-05T23:46:52.609Z,78.12
2019-04-05T23:49:20.535Z,78.26
2019-04-05T23:51:49.016Z,78.36
2019-04-05T23:54:17.520Z,78.36
2019-04-05T23:56:45.986Z,78.37
2019-04-05T23:59:14.611Z,78.48
